createdAt,value
2017-11-03T00:00:39.842Z,11.50
2017-11-03T00:03:07.395Z,11.50
2017-11-03T00:05:34.991Z,11.50
2017-11-03T00:08:03.302Z,11.50
2017-11-03T00:10:30.859Z,11.50
2017-11-03T00:12:58.406Z,11.50
2017-11-03T00:15:26.829Z,11.50
2017-11-03T00:17:55.068Z,11.50
2017-11-03T00:20:26.897Z,11.50
2017-11-03T00:28:59.340Z,11.50
2017-11-03T00:31:26.925Z,11.60
2017-11-03T00:33:54.506Z,11.60
2017-11-03T00:36:22.841Z,11.50
2017-11-03T00:38:50.406Z,11.50
2017-11-03T00:41:17.973Z,11.50
2017-11-03T00:43:45.547Z,11.40
2017-11-03T00:46:13.886Z,11.40
2017-11-03T00:48:41.455Z,11.50
2017-11-03T00:51:09.191Z,11.40
2017-11-03T00:53:36.751Z,11.50
2017-11-03T00:56:04.319Z,11.50
2017-11-03T00:58:31.895Z,11.50
2017-11-03T01:00:59.448Z,11.50
2017-11-03T01:03:27.015Z,11.50
2017-11-03T01:05:54.601Z,11.50
2017-11-03T01:08:22.185Z,11.50
2017-11-03T01:10:50.547Z,11.40
2017-11-03T01:13:18.121Z,11.40
2017-11-03T01:15:46.472Z,11.50
2017-11-03T01:18:14.014Z,11.40
2017-11-03T01:20:41.605Z,11.40
2017-11-03T01:23:09.160Z,11.40
2017-11-03T01:25:36.731Z,11.40
2017-11-03T01:28:05.049Z,11.40
2017-11-03T01:30:32.631Z,11.30
2017-11-03T01:33:00.183Z,11.30
2017-11-03T01:35:27.754Z,11.40
2017-11-03T01:37:55.313Z,11.40
2017-11-03T01:40:22.939Z,11.40
2017-11-03T01:42:50.509Z,11.30
2017-11-03T01:45:18.089Z,11.20
2017-11-03T01:47:45.637Z,11.30
2017-11-03T01:50:13.201Z,11.20
2017-11-03T01:52:40.734Z,11.30
2017-11-03T01:55:08.269Z,11.30
2017-11-03T01:57:36.610Z,11.20
2017-11-03T02:00:04.172Z,11.20
2017-11-03T02:02:31.754Z,11.20
2017-11-03T02:04:59.318Z,11.20
2017-11-03T02:07:26.879Z,11.30
2017-11-03T02:09:54.426Z,11.20
2017-11-03T02:12:22.005Z,11.20
2017-11-03T02:14:49.581Z,11.30
2017-11-03T02:17:17.898Z,11.30
2017-11-03T02:19:45.453Z,11.20
2017-11-03T02:22:13.006Z,11.30
2017-11-03T02:24:40.565Z,11.20
2017-11-03T02:27:08.127Z,11.20
2017-11-03T02:29:35.692Z,11.20
2017-11-03T02:32:03.230Z,11.20
2017-11-03T02:34:30.789Z,11.20
2017-11-03T02:36:58.344Z,11.20
2017-11-03T02:39:26.682Z,11.20
2017-11-03T02:41:54.234Z,11.20
2017-11-03T02:44:21.780Z,11.20
2017-11-03T02:46:49.315Z,11.20
2017-11-03T02:49:16.869Z,11.20
2017-11-03T02:51:44.435Z,11.20
2017-11-03T02:54:12.011Z,11.20
2017-11-03T02:56:39.575Z,11.20
2017-11-03T02:59:07.129Z,11.10
2017-11-03T03:01:34.690Z,11.00
2017-11-03T03:04:02.244Z,11.10
2017-11-03T03:06:29.816Z,11.10
2017-11-03T03:08:57.387Z,11.10
2017-11-03T03:11:24.990Z,11.10
2017-11-03T03:13:53.324Z,11.10
2017-11-03T03:16:20.890Z,11.10
2017-11-03T03:18:48.447Z,11.10
2017-11-03T03:21:16.003Z,11.10
2017-11-03T03:23:43.577Z,11.00
2017-11-03T03:26:11.140Z,11.00
2017-11-03T03:28:38.702Z,10.90
2017-11-03T03:31:06.254Z,10.90
2017-11-03T03:33:33.826Z,10.90
2017-11-03T03:36:01.390Z,10.80
2017-11-03T03:38:28.963Z,10.80
2017-11-03T03:40:57.307Z,10.90
2017-11-03T03:43:24.874Z,10.80
2017-11-03T03:45:52.441Z,10.80
2017-11-03T03:48:20.017Z,10.80
2017-11-03T03:50:47.593Z,10.80
2017-11-03T03:53:15.909Z,10.80
2017-11-03T03:55:43.459Z,10.80
2017-11-03T03:58:11.045Z,10.80
2017-11-03T04:00:38.624Z,10.80
2017-11-03T04:03:06.197Z,10.80
2017-11-03T04:05:33.771Z,10.80
2017-11-03T04:08:02.085Z,10.70
2017-11-03T04:10:29.661Z,10.70
2017-11-03T04:12:57.257Z,10.70
2017-11-03T04:15:25.587Z,10.70
2017-11-03T04:17:53.124Z,10.70
2017-11-03T04:20:20.682Z,10.70
2017-11-03T04:22:48.217Z,10.80
2017-11-03T04:25:16.529Z,10.70
2017-11-03T04:27:44.092Z,10.70
2017-11-03T04:30:11.656Z,10.70
2017-11-03T04:32:39.203Z,10.70
2017-11-03T04:35:06.752Z,10.70
2017-11-03T04:37:34.345Z,10.60
2017-11-03T04:40:01.929Z,10.70
2017-11-03T04:42:29.494Z,10.60
2017-11-03T04:44:57.060Z,10.60
2017-11-03T04:47:24.632Z,10.60
2017-11-03T04:49:52.959Z,10.60
2017-11-03T04:52:20.565Z,10.60
2017-11-03T04:54:48.127Z,10.60
2017-11-03T04:57:16.461Z,10.50
2017-11-03T04:59:44.037Z,10.50
2017-11-03T05:02:11.577Z,10.50
2017-11-03T05:04:39.142Z,10.50
2017-11-03T05:07:06.701Z,10.50
2017-11-03T05:09:34.271Z,10.50
2017-11-03T05:12:01.821Z,10.40
2017-11-03T05:14:29.391Z,10.40
2017-11-03T05:16:56.953Z,10.40
2017-11-03T05:19:24.511Z,10.40
2017-11-03T05:21:52.078Z,10.40
2017-11-03T05:24:19.621Z,10.40
2017-11-03T05:26:47.198Z,10.40
2017-11-03T05:29:14.780Z,10.40
2017-11-03T05:31:42.341Z,10.40
2017-11-03T05:34:09.904Z,10.40
2017-11-03T05:36:37.497Z,10.40
2017-11-03T05:39:05.071Z,10.30
2017-11-03T05:41:32.631Z,10.30
2017-11-03T05:44:00.220Z,10.30
2017-11-03T05:46:27.779Z,10.30
2017-11-03T05:48:55.337Z,10.30
2017-11-03T05:51:22.889Z,10.30
2017-11-03T05:53:50.464Z,10.40
2017-11-03T05:56:18.054Z,10.30
2017-11-03T05:58:46.382Z,10.30
2017-11-03T06:01:13.943Z,10.30
2017-11-03T06:03:41.526Z,10.30
2017-11-03T06:06:09.073Z,10.30
2017-11-03T06:08:36.649Z,10.40
2017-11-03T06:11:04.229Z,10.40
2017-11-03T06:13:32.585Z,10.40
2017-11-03T06:16:00.182Z,10.50
2017-11-03T06:18:28.493Z,10.40
2017-11-03T06:20:56.043Z,10.40
2017-11-03T06:23:23.621Z,10.40
2017-11-03T06:25:51.192Z,10.40
2017-11-03T06:28:18.770Z,10.50
2017-11-03T06:30:46.350Z,10.50
2017-11-03T06:33:14.714Z,10.40
2017-11-03T06:35:42.297Z,10.40
2017-11-03T06:38:10.625Z,10.50
2017-11-03T06:40:38.253Z,10.50
2017-11-03T06:43:05.834Z,10.60
2017-11-03T06:45:33.398Z,10.50
2017-11-03T06:48:00.965Z,10.60
2017-11-03T06:50:28.517Z,10.60
2017-11-03T06:56:00.669Z,10.70
2017-11-03T06:58:36.129Z,10.70
2017-11-03T07:01:03.721Z,10.70
2017-11-03T07:03:31.322Z,10.80
2017-11-03T07:05:58.918Z,10.80
2017-11-03T07:08:26.452Z,10.80
2017-11-03T07:10:54.052Z,10.80
2017-11-03T07:13:21.608Z,10.80
2017-11-03T07:15:49.165Z,10.90
2017-11-03T07:18:16.775Z,11.00
2017-11-03T07:20:44.320Z,11.00
2017-11-03T07:23:12.665Z,11.10
2017-11-03T07:25:40.213Z,11.10
2017-11-03T07:28:07.797Z,11.10
2017-11-03T07:30:35.373Z,11.20
2017-11-03T07:33:03.693Z,11.20
2017-11-03T07:35:31.282Z,11.20
2017-11-03T07:37:58.877Z,11.30
2017-11-03T07:40:27.204Z,11.40
2017-11-03T07:42:54.756Z,11.40
2017-11-03T07:45:22.376Z,11.50
2017-11-03T07:47:50.706Z,11.50
2017-11-03T07:50:18.292Z,11.50
2017-11-03T07:52:45.877Z,11.60
2017-11-03T07:55:14.209Z,11.80
2017-11-03T07:57:41.794Z,11.80
2017-11-03T08:00:09.357Z,11.90
2017-11-03T08:02:36.934Z,11.90
2017-11-03T08:05:05.281Z,12.10
2017-11-03T08:07:32.868Z,12.00
2017-11-03T08:10:01.214Z,12.20
2017-11-03T08:12:28.804Z,12.20
2017-11-03T08:14:57.120Z,12.30
2017-11-03T08:17:24.701Z,12.30
2017-11-03T08:19:52.732Z,12.30
2017-11-03T08:22:20.292Z,12.30
2017-11-03T08:24:47.866Z,12.40
2017-11-03T08:27:15.435Z,12.50
2017-11-03T08:29:43.009Z,12.60
2017-11-03T08:32:10.553Z,12.60
2017-11-03T08:34:38.125Z,12.60
2017-11-03T08:37:05.705Z,12.80
2017-11-03T08:39:33.326Z,12.90
2017-11-03T08:42:00.877Z,12.80
2017-11-03T08:44:29.025Z,12.90
2017-11-03T08:46:57.365Z,13.20
2017-11-03T08:49:24.922Z,13.20
2017-11-03T08:51:52.497Z,13.30
2017-11-03T08:54:20.073Z,13.30
2017-11-03T08:56:47.661Z,13.30
2017-11-03T08:59:15.997Z,13.40
2017-11-03T09:01:43.547Z,13.40
2017-11-03T09:04:26.399Z,13.50
2017-11-03T09:06:54.725Z,13.80
2017-11-03T09:09:22.283Z,13.70
2017-11-03T09:11:49.840Z,13.80
2017-11-03T09:14:17.390Z,13.90
2017-11-03T09:16:44.983Z,14.00
2017-11-03T09:19:12.548Z,14.10
2017-11-03T09:21:40.126Z,14.40
2017-11-03T09:24:07.670Z,14.40
2017-11-03T09:26:35.289Z,14.40
2017-11-03T09:29:02.890Z,14.30
2017-11-03T09:31:30.490Z,14.20
2017-11-03T09:33:58.834Z,14.40
2017-11-03T09:36:28.034Z,14.60
2017-11-03T09:38:55.600Z,14.60
2017-11-03T09:41:23.133Z,14.60
2017-11-03T09:43:50.709Z,14.60
2017-11-03T09:46:18.268Z,14.70
2017-11-03T09:48:45.824Z,14.80
2017-11-03T09:51:13.391Z,14.90
2017-11-03T09:53:40.976Z,14.90
2017-11-03T09:56:08.530Z,14.80
2017-11-03T09:58:36.089Z,14.90
2017-11-03T10:01:03.633Z,15.10
2017-11-03T10:03:31.212Z,15.10
2017-11-03T10:05:58.762Z,15.20
2017-11-03T10:08:26.351Z,15.30
2017-11-03T10:17:37.229Z,15.40
2017-11-03T10:20:04.797Z,15.20
2017-11-03T10:22:32.396Z,15.10
2017-11-03T10:25:00.894Z,15.30
2017-11-03T10:27:28.465Z,15.30
2017-11-03T10:29:56.062Z,15.20
2017-11-03T10:32:23.625Z,15.30
2017-11-03T10:34:51.164Z,15.30
2017-11-03T10:37:18.750Z,15.10
2017-11-03T10:39:46.295Z,15.20
2017-11-03T10:42:13.866Z,15.30
2017-11-03T10:44:41.435Z,15.20
2017-11-03T10:47:08.992Z,15.30
2017-11-03T10:49:36.552Z,15.30
2017-11-03T10:52:04.122Z,15.60
2017-11-03T10:54:32.466Z,16.00
2017-11-03T10:57:00.022Z,15.90
2017-11-03T10:59:27.581Z,16.10
2017-11-03T11:01:55.133Z,16.00
2017-11-03T11:04:22.701Z,16.00
2017-11-03T11:06:50.275Z,16.00
2017-11-03T11:09:17.840Z,15.60
2017-11-03T11:11:45.398Z,15.80
2017-11-03T11:14:12.940Z,15.90
2017-11-03T11:16:40.533Z,15.90
2017-11-03T11:19:08.854Z,15.80
2017-11-03T11:21:36.417Z,15.80
2017-11-03T11:24:03.979Z,15.90
2017-11-03T11:26:31.536Z,15.90
2017-11-03T11:28:59.104Z,16.10
2017-11-03T11:31:26.657Z,16.30
2017-11-03T11:33:54.217Z,16.50
2017-11-03T11:36:21.825Z,16.30
2017-11-03T11:38:49.390Z,16.30
2017-11-03T11:41:16.988Z,16.80
2017-11-03T11:43:44.539Z,16.70
2017-11-03T11:46:12.884Z,16.90
2017-11-03T11:48:41.225Z,17.10
2017-11-03T11:51:08.813Z,17.00
2017-11-03T11:53:36.402Z,16.80
2017-11-03T11:56:04.747Z,17.00
2017-11-03T11:58:32.339Z,17.00
2017-11-03T12:01:00.677Z,17.20
2017-11-03T12:03:28.235Z,17.20
2017-11-03T12:05:55.805Z,17.50
2017-11-03T12:08:24.127Z,17.90
2017-11-03T12:10:52.486Z,18.00
2017-11-03T12:13:20.096Z,18.00
2017-11-03T12:15:47.692Z,18.00
2017-11-03T12:18:15.757Z,17.90
2017-11-03T12:20:43.724Z,17.90
2017-11-03T12:23:11.301Z,17.80
2017-11-03T12:25:38.917Z,18.10
2017-11-03T12:28:06.494Z,17.90
2017-11-03T12:30:34.078Z,17.90
2017-11-03T12:33:01.639Z,18.00
2017-11-03T12:35:29.227Z,17.50
2017-11-03T12:37:57.572Z,17.10
2017-11-03T12:40:25.149Z,17.00
2017-11-03T12:42:52.717Z,17.30
2017-11-03T12:45:21.042Z,17.70
2017-11-03T12:47:48.618Z,17.70
2017-11-03T12:50:16.200Z,17.70
2017-11-03T12:52:43.784Z,17.80
2017-11-03T12:55:11.346Z,18.10
2017-11-03T12:57:38.927Z,18.50
2017-11-03T13:00:06.519Z,18.70
2017-11-03T13:02:34.870Z,18.90
2017-11-03T13:05:02.443Z,18.90
2017-11-03T13:07:30.812Z,19.40
2017-11-03T13:09:58.401Z,19.50
2017-11-03T13:12:26.799Z,19.40
2017-11-03T13:14:54.385Z,19.40
2017-11-03T13:17:21.978Z,19.30
2017-11-03T13:19:50.537Z,19.40
2017-11-03T13:22:18.142Z,19.20
2017-11-03T13:24:46.456Z,19.00
2017-11-03T13:27:14.093Z,19.00
2017-11-03T13:29:42.470Z,18.90
2017-11-03T13:32:11.025Z,18.50
2017-11-03T13:34:38.601Z,18.50
2017-11-03T13:37:06.960Z,17.90
2017-11-03T13:39:34.631Z,17.90
2017-11-03T13:42:03.008Z,17.80
2017-11-03T13:44:30.573Z,17.70
2017-11-03T13:46:58.161Z,17.70
2017-11-03T13:49:26.520Z,17.20
2017-11-03T13:51:54.863Z,16.90
2017-11-03T13:54:22.475Z,16.80
2017-11-03T13:56:51.102Z,16.70
2017-11-03T13:59:18.668Z,16.70
2017-11-03T14:01:46.215Z,16.90
2017-11-03T14:04:13.791Z,16.90
2017-11-03T14:06:41.343Z,16.90
2017-11-03T14:09:08.931Z,16.90
2017-11-03T14:11:36.495Z,16.80
2017-11-03T14:14:04.064Z,16.90
2017-11-03T14:16:31.632Z,16.80
2017-11-03T14:18:59.971Z,16.80
2017-11-03T14:21:27.557Z,16.80
2017-11-03T14:23:55.122Z,16.70
2017-11-03T14:26:22.677Z,16.80
2017-11-03T14:28:50.268Z,16.80
2017-11-03T14:31:18.657Z,16.40
2017-11-03T14:33:46.229Z,16.40
2017-11-03T14:36:13.801Z,16.40
2017-11-03T14:38:41.359Z,16.30
2017-11-03T14:41:08.910Z,16.20
2017-11-03T14:43:36.453Z,16.20
2017-11-03T14:46:04.007Z,16.00
2017-11-03T14:48:32.328Z,15.60
2017-11-03T14:50:59.929Z,15.60
2017-11-03T14:53:28.273Z,15.60
2017-11-03T14:55:55.844Z,15.50
2017-11-03T14:58:23.418Z,15.50
2017-11-03T15:00:50.979Z,15.50
2017-11-03T15:03:18.533Z,15.60
2017-11-03T15:05:46.088Z,15.40
2017-11-03T15:08:13.686Z,15.40
2017-11-03T15:10:42.005Z,15.00
2017-11-03T15:13:09.570Z,15.00
2017-11-03T15:15:37.142Z,15.00
2017-11-03T15:18:04.695Z,14.90
2017-11-03T15:20:32.272Z,14.90
2017-11-03T15:22:59.835Z,14.80
2017-11-03T15:25:27.423Z,14.70
2017-11-03T15:27:55.737Z,14.70
2017-11-03T15:30:23.302Z,14.70
2017-11-03T15:32:50.887Z,14.70
2017-11-03T15:35:18.469Z,14.70
2017-11-03T15:37:46.809Z,14.50
2017-11-03T15:40:14.394Z,14.50
2017-11-03T15:42:41.961Z,14.50
2017-11-03T15:45:09.551Z,14.40
2017-11-03T15:47:37.110Z,14.40
2017-11-03T15:50:04.669Z,14.30
2017-11-03T15:52:32.279Z,14.30
2017-11-03T15:54:59.849Z,14.20
2017-11-03T15:57:27.718Z,14.10
2017-11-03T15:59:55.313Z,14.00
2017-11-03T16:02:23.641Z,13.80
2017-11-03T16:04:51.485Z,13.80
2017-11-03T16:07:19.876Z,13.60
2017-11-03T16:09:47.451Z,13.60
2017-11-03T16:12:15.039Z,13.50
2017-11-03T16:14:43.377Z,13.40
2017-11-03T16:17:10.934Z,13.30
2017-11-03T16:19:38.521Z,13.20
2017-11-03T16:22:06.103Z,13.10
2017-11-03T16:24:34.454Z,13.00
2017-11-03T16:27:02.046Z,12.90
2017-11-03T16:29:30.437Z,12.80
2017-11-03T16:31:58.014Z,12.80
2017-11-03T16:34:25.558Z,12.70
2017-11-03T16:36:53.115Z,12.60
2017-11-03T16:39:20.685Z,12.60
2017-11-03T16:41:48.272Z,12.50
2017-11-03T16:44:15.824Z,12.50
2017-11-03T16:46:43.401Z,12.50
2017-11-03T16:49:10.964Z,12.40
2017-11-03T16:51:38.586Z,12.30
2017-11-03T16:54:06.137Z,12.20
2017-11-03T16:56:34.504Z,12.10
2017-11-03T16:59:02.900Z,12.00
2017-11-03T17:01:30.479Z,12.00
2017-11-03T17:03:58.201Z,11.90
2017-11-03T17:06:26.570Z,11.90
2017-11-03T17:08:54.150Z,11.80
2017-11-03T17:11:21.736Z,11.80
2017-11-03T17:13:49.332Z,11.70
2017-11-03T17:16:16.901Z,11.70
2017-11-03T17:18:44.541Z,11.70
2017-11-03T17:21:12.101Z,11.60
2017-11-03T17:23:39.675Z,11.50
2017-11-03T17:26:07.301Z,11.50
2017-11-03T17:28:34.855Z,11.40
2017-11-03T17:31:03.233Z,11.30
2017-11-03T17:33:31.587Z,11.30
2017-11-03T17:35:59.183Z,11.30
2017-11-03T17:38:26.733Z,11.20
2017-11-03T17:40:55.078Z,11.10
2017-11-03T17:43:22.649Z,11.10
2017-11-03T17:45:50.219Z,11.00
2017-11-03T17:48:17.797Z,11.00
2017-11-03T17:50:46.135Z,10.90
2017-11-03T17:53:13.851Z,10.80
2017-11-03T17:55:41.540Z,10.80
2017-11-03T17:58:09.411Z,10.80
2017-11-03T18:00:37.530Z,10.70
2017-11-03T18:03:06.266Z,10.70
2017-11-03T18:05:34.185Z,10.70
2017-11-03T18:08:02.662Z,10.70
2017-11-03T18:10:30.451Z,10.60
2017-11-03T18:12:58.143Z,10.60
2017-11-03T18:15:26.558Z,10.50
2017-11-03T18:17:54.250Z,10.50
2017-11-03T18:20:22.222Z,10.40
2017-11-03T18:22:49.990Z,10.40
2017-11-03T18:25:17.579Z,10.30
2017-11-03T18:27:45.917Z,10.30
2017-11-03T18:30:13.500Z,10.30
2017-11-03T18:32:41.095Z,10.20
2017-11-03T18:35:09.473Z,10.20
2017-11-03T18:37:37.912Z,10.10
2017-11-03T18:40:05.496Z,10.10
2017-11-03T18:42:33.826Z,10.00
2017-11-03T18:45:01.410Z,10.00
2017-11-03T18:47:28.977Z,10.00
2017-11-03T18:49:56.709Z,10.00
2017-11-03T18:52:26.231Z,9.90
2017-11-03T18:54:55.922Z,9.90
2017-11-03T18:57:23.799Z,9.80
2017-11-03T18:59:51.470Z,9.80
2017-11-03T19:02:20.332Z,9.80
2017-11-03T19:04:47.970Z,9.70
2017-11-03T19:07:16.555Z,9.60
2017-11-03T19:09:44.902Z,9.60
2017-11-03T19:12:12.534Z,9.60
2017-11-03T19:14:40.147Z,9.60
2017-11-03T19:17:08.568Z,9.50
2017-11-03T19:19:36.129Z,9.50
2017-11-03T19:22:03.854Z,9.50
2017-11-03T19:24:32.464Z,9.40
2017-11-03T19:27:00.223Z,9.40
2017-11-03T19:29:27.864Z,9.40
2017-11-03T19:31:55.498Z,9.30
2017-11-03T19:34:23.183Z,9.30
2017-11-03T19:36:50.821Z,9.30
2017-11-03T19:39:18.404Z,9.30
2017-11-03T19:41:46.066Z,9.30
2017-11-03T19:44:13.840Z,9.30
2017-11-03T19:46:41.501Z,9.20
2017-11-03T19:49:09.152Z,9.20
2017-11-03T19:51:37.572Z,9.20
2017-11-03T19:54:05.151Z,9.10
2017-11-03T19:56:32.806Z,9.10
2017-11-03T19:59:00.384Z,9.10
2017-11-03T20:01:28.042Z,9.00
2017-11-03T20:03:55.695Z,9.00
2017-11-03T20:06:23.287Z,9.00
2017-11-03T20:08:50.886Z,9.00
2017-11-03T20:11:19.388Z,8.90
2017-11-03T20:13:47.831Z,8.90
2017-11-03T20:16:15.563Z,8.90
2017-11-03T20:18:43.210Z,8.90
2017-11-03T20:21:10.861Z,8.80
2017-11-03T20:23:39.260Z,8.80
2017-11-03T20:26:06.832Z,8.70
2017-11-03T20:28:35.730Z,8.70
2017-11-03T20:31:04.131Z,8.70
2017-11-03T20:33:32.543Z,8.70
2017-11-03T20:36:00.149Z,8.60
2017-11-03T20:38:28.501Z,8.60
2017-11-03T20:40:56.082Z,8.60
2017-11-03T20:43:24.434Z,8.60
2017-11-03T20:45:52.101Z,8.60
2017-11-03T20:48:20.295Z,8.60
2017-11-03T20:50:47.876Z,8.60
2017-11-03T20:53:16.260Z,8.50
2017-11-03T20:55:44.694Z,8.50
2017-11-03T20:58:12.307Z,8.50
2017-11-03T21:00:40.681Z,8.40
2017-11-03T21:03:08.450Z,8.40
2017-11-03T21:05:36.059Z,8.40
2017-11-03T21:08:03.639Z,8.40
2017-11-03T21:10:33.026Z,8.40
2017-11-03T21:13:00.967Z,8.30
2017-11-03T21:15:28.718Z,8.30
2017-11-03T21:17:56.741Z,8.20
2017-11-03T21:20:24.958Z,8.20
2017-11-03T21:22:53.448Z,8.20
2017-11-03T21:25:21.247Z,8.20
2017-11-03T21:27:49.018Z,8.20
2017-11-03T21:30:16.717Z,8.20
2017-11-03T21:32:44.368Z,8.20
2017-11-03T21:35:12.787Z,8.10
2017-11-03T21:37:40.572Z,8.10
2017-11-03T21:40:08.733Z,8.10
2017-11-03T21:42:36.762Z,8.00
2017-11-03T21:45:05.113Z,8.00
2017-11-03T21:47:32.780Z,8.00
2017-11-03T21:50:01.090Z,8.00
2017-11-03T21:52:30.069Z,7.90
2017-11-03T21:54:57.996Z,7.90
2017-11-03T21:57:25.563Z,7.90
2017-11-03T21:59:53.223Z,7.90
2017-11-03T22:02:20.986Z,7.80
2017-11-03T22:04:48.983Z,7.80
2017-11-03T22:07:16.575Z,7.80
2017-11-03T22:09:44.910Z,7.80
2017-11-03T22:12:12.654Z,7.70
2017-11-03T22:14:40.936Z,7.80
2017-11-03T22:17:09.907Z,7.70
2017-11-03T22:19:37.516Z,7.70
2017-11-03T22:22:05.884Z,7.70
2017-11-03T22:24:33.492Z,7.70
2017-11-03T22:27:02.145Z,7.70
2017-11-03T22:29:31.297Z,7.70
2017-11-03T22:31:59.084Z,7.60
2017-11-03T22:34:26.681Z,7.60
2017-11-03T22:36:54.247Z,7.60
2017-11-03T22:39:21.847Z,7.60
2017-11-03T22:41:49.393Z,7.60
2017-11-03T22:44:17.730Z,7.50
2017-11-03T22:46:45.300Z,7.50
2017-11-03T22:49:12.886Z,7.60
2017-11-03T22:51:41.232Z,7.60
2017-11-03T22:54:08.803Z,7.60
2017-11-03T22:56:36.388Z,7.50
2017-11-03T22:59:04.718Z,7.50
2017-11-03T23:01:32.285Z,7.50
2017-11-03T23:03:59.857Z,7.50
2017-11-03T23:06:27.441Z,7.50
2017-11-03T23:08:55.001Z,7.50
2017-11-03T23:11:22.589Z,7.50
2017-11-03T23:13:50.164Z,7.50
2017-11-03T23:16:17.737Z,7.50
2017-11-03T23:18:45.305Z,7.50
2017-11-03T23:21:12.849Z,7.40
2017-11-03T23:23:40.404Z,7.50
2017-11-03T23:26:08.000Z,7.40
2017-11-03T23:28:35.545Z,7.40
2017-11-03T23:31:03.105Z,7.40
2017-11-03T23:33:30.712Z,7.40
2017-11-03T23:35:59.043Z,7.30
2017-11-03T23:38:26.622Z,7.30
2017-11-03T23:40:54.174Z,7.30
2017-11-03T23:43:21.742Z,7.30
2017-11-03T23:45:49.306Z,7.30
2017-11-03T23:48:16.887Z,7.30
2017-11-03T23:50:45.218Z,7.20
2017-11-03T23:53:12.770Z,7.20
2017-11-03T23:55:40.359Z,7.10
2017-11-03T23:58:07.953Z,7.10
